createdAt,value
2023-01-26T00:01:19.046Z,1.50
2023-01-26T00:03:51.933Z,1.50
2023-01-26T00:06:23.087Z,1.50
2023-01-26T00:08:56.010Z,1.50
2023-01-26T00:11:28.399Z,1.50
2023-01-26T00:13:58.949Z,1.50
2023-01-26T00:16:36.168Z,1.40
2023-01-26T00:19:11.144Z,1.40
2023-01-26T00:21:43.422Z,1.50
2023-01-26T00:24:14.914Z,1.50
2023-01-26T00:26:50.741Z,1.50
2023-01-26T00:29:22.864Z,1.50
2023-01-26T00:31:51.654Z,1.50
2023-01-26T00:34:20.214Z,1.50
2023-01-26T00:36:56.523Z,1.50
2023-01-26T00:39:46.493Z,1.60
2023-01-26T00:43:13.538Z,1.50
2023-01-26T00:45:20.081Z,1.50
2023-01-26T00:47:52.027Z,1.50
2023-01-26T00:50:26.377Z,1.60
2023-01-26T00:53:36.853Z,1.50
2023-01-26T00:56:17.649Z,1.60
2023-01-26T00:58:46.528Z,1.50
2023-01-26T01:01:24.374Z,1.50
2023-01-26T01:03:56.391Z,1.50
2023-01-26T01:06:25.805Z,1.60
2023-01-26T01:08:55.900Z,1.50
2023-01-26T01:11:27.098Z,1.60
2023-01-26T01:13:55.817Z,1.50
2023-01-26T01:16:26.130Z,1.60
2023-01-26T01:18:55.516Z,1.60
2023-01-26T01:21:27.308Z,1.60
2023-01-26T01:23:57.413Z,1.60
2023-01-26T01:26:27.714Z,1.60
2023-01-26T01:28:59.635Z,1.60
2023-01-26T01:31:29.534Z,1.60
2023-01-26T01:33:58.844Z,1.60
2023-01-26T01:36:27.510Z,1.60
2023-01-26T01:38:57.609Z,1.60
2023-01-26T01:41:26.437Z,1.60
2023-01-26T01:44:17.768Z,1.60
2023-01-26T01:46:51.601Z,1.60
2023-01-26T01:49:24.194Z,1.60
2023-01-26T01:51:56.862Z,1.60
2023-01-26T01:54:32.910Z,1.60
2023-01-26T01:57:06.307Z,1.60
2023-01-26T01:59:35.824Z,1.60
2023-01-26T02:02:04.889Z,1.60
2023-01-26T02:04:33.523Z,1.60
2023-01-26T02:07:05.666Z,1.60
2023-01-26T02:09:57.079Z,1.60
2023-01-26T02:12:30.360Z,1.60
2023-01-26T02:15:00.039Z,1.60
2023-01-26T02:17:28.474Z,1.60
2023-01-26T02:20:05.675Z,1.60
2023-01-26T02:22:46.741Z,1.60
2023-01-26T02:25:28.600Z,1.60
2023-01-26T02:27:58.815Z,1.60
2023-01-26T02:30:29.684Z,1.50
2023-01-26T02:32:58.360Z,1.60
2023-01-26T02:35:27.390Z,1.50
2023-01-26T02:37:56.059Z,1.50
2023-01-26T02:40:38.974Z,1.50
2023-01-26T02:43:07.966Z,1.50
2023-01-26T02:45:41.772Z,1.50
2023-01-26T02:48:10.444Z,1.50
2023-01-26T02:50:45.981Z,1.60
2023-01-26T02:53:25.935Z,1.60
2023-01-26T02:55:56.585Z,1.60
2023-01-26T02:58:30.460Z,1.60
2023-01-26T03:00:59.687Z,1.60
2023-01-26T03:03:41.995Z,1.60
2023-01-26T03:06:11.705Z,1.60
2023-01-26T03:08:41.429Z,1.60
2023-01-26T03:11:10.759Z,1.60
2023-01-26T03:13:41.030Z,1.60
2023-01-26T03:16:12.117Z,1.50
2023-01-26T03:18:58.435Z,1.60
2023-01-26T03:21:44.525Z,1.60
2023-01-26T03:24:33.162Z,1.50
2023-01-26T03:27:22.928Z,1.60
2023-01-26T03:29:54.131Z,1.60
2023-01-26T03:32:23.004Z,1.60
2023-01-26T03:34:52.508Z,1.60
2023-01-26T03:37:22.799Z,1.60
2023-01-26T03:40:20.460Z,1.60
2023-01-26T03:43:06.848Z,1.60
2023-01-26T03:45:54.778Z,1.50
2023-01-26T03:48:43.611Z,1.50
2023-01-26T03:51:29.685Z,1.50
2023-01-26T03:54:16.084Z,1.50
2023-01-26T03:56:45.255Z,1.50
2023-01-26T03:59:38.352Z,1.50
2023-01-26T04:02:31.355Z,1.40
2023-01-26T04:05:18.452Z,1.50
2023-01-26T04:08:09.108Z,1.40
2023-01-26T04:10:37.798Z,1.40
2023-01-26T04:13:24.454Z,1.50
2023-01-26T04:16:20.428Z,1.50
2023-01-26T04:19:08.205Z,1.50
2023-01-26T04:21:37.724Z,1.50
2023-01-26T04:24:17.109Z,1.50
2023-01-26T04:26:47.462Z,1.50
2023-01-26T04:29:20.725Z,1.50
2023-01-26T04:31:49.667Z,1.50
2023-01-26T04:34:23.479Z,1.40
2023-01-26T04:36:52.460Z,1.40
2023-01-26T04:39:25.491Z,1.40
2023-01-26T04:41:57.305Z,1.40
2023-01-26T04:44:27.356Z,1.40
2023-01-26T04:46:56.068Z,1.40
2023-01-26T04:49:26.277Z,1.40
2023-01-26T04:51:54.951Z,1.50
2023-01-26T04:54:24.632Z,1.40
2023-01-26T04:56:53.903Z,1.40
2023-01-26T04:59:22.967Z,1.50
2023-01-26T05:01:55.972Z,1.50
2023-01-26T05:04:26.452Z,1.50
2023-01-26T05:06:55.783Z,1.50
2023-01-26T05:09:27.345Z,1.50
2023-01-26T05:12:31.866Z,1.50
2023-01-26T05:15:19.469Z,1.50
2023-01-26T05:18:17.633Z,1.60
2023-01-26T05:21:11.858Z,1.50
2023-01-26T05:23:44.547Z,1.50
2023-01-26T05:26:39.659Z,1.50
2023-01-26T05:29:13.342Z,1.50
2023-01-26T05:31:42.843Z,1.40
2023-01-26T05:34:14.538Z,1.40
2023-01-26T05:36:55.820Z,1.50
2023-01-26T05:39:33.656Z,1.50
2023-01-26T05:42:06.866Z,1.50
2023-01-26T05:45:02.526Z,1.50
2023-01-26T05:47:32.434Z,1.50
2023-01-26T05:50:06.758Z,1.40
2023-01-26T05:53:00.815Z,1.40
2023-01-26T05:55:55.001Z,1.40
2023-01-26T05:58:38.188Z,1.40
2023-01-26T06:01:12.361Z,1.40
2023-01-26T06:03:53.806Z,1.40
2023-01-26T06:06:36.943Z,1.40
2023-01-26T06:09:27.617Z,1.40
2023-01-26T06:12:23.788Z,1.40
2023-01-26T06:15:00.952Z,1.40
2023-01-26T06:17:38.863Z,1.40
2023-01-26T06:20:12.751Z,1.40
2023-01-26T06:22:41.821Z,1.40
2023-01-26T06:25:14.525Z,1.40
2023-01-26T06:27:43.503Z,1.40
2023-01-26T06:30:20.163Z,1.30
2023-01-26T06:32:53.637Z,1.30
2023-01-26T06:35:25.265Z,1.30
2023-01-26T06:37:57.202Z,1.30
2023-01-26T06:40:27.478Z,1.30
2023-01-26T06:42:56.311Z,1.30
2023-01-26T06:45:26.543Z,1.30
2023-01-26T06:47:56.633Z,1.30
2023-01-26T06:50:34.520Z,1.30
2023-01-26T06:53:06.016Z,1.20
2023-01-26T06:55:48.486Z,1.30
2023-01-26T06:58:35.163Z,1.30
2023-01-26T07:01:26.104Z,1.30
2023-01-26T07:03:59.989Z,1.30
2023-01-26T07:06:29.096Z,1.30
2023-01-26T07:08:58.895Z,1.30
2023-01-26T07:11:30.764Z,1.30
2023-01-26T07:14:00.994Z,1.30
2023-01-26T07:16:31.939Z,1.40
2023-01-26T07:19:02.622Z,1.40
2023-01-26T07:21:32.884Z,1.40
2023-01-26T07:24:01.680Z,1.30
2023-01-26T07:26:31.952Z,1.40
2023-01-26T07:29:02.329Z,1.40
2023-01-26T07:31:35.418Z,1.40
2023-01-26T07:34:09.304Z,1.30
2023-01-26T07:36:48.863Z,1.30
2023-01-26T07:39:23.907Z,1.30
2023-01-26T07:41:54.196Z,1.30
2023-01-26T07:44:50.292Z,1.30
2023-01-26T07:47:20.170Z,1.40
2023-01-26T07:49:48.573Z,1.40
2023-01-26T07:52:17.385Z,1.40
2023-01-26T07:54:46.183Z,1.40
2023-01-26T07:57:16.284Z,1.40
2023-01-26T07:59:44.904Z,1.30
2023-01-26T08:02:13.724Z,1.30
2023-01-26T08:04:42.307Z,1.30
2023-01-26T08:07:10.953Z,1.40
2023-01-26T08:09:39.871Z,1.40
2023-01-26T08:12:08.703Z,1.40
2023-01-26T08:14:46.796Z,1.30
2023-01-26T08:17:17.686Z,1.30
2023-01-26T08:19:46.703Z,1.30
2023-01-26T08:22:15.644Z,1.30
2023-01-26T08:24:44.231Z,1.40
2023-01-26T08:27:12.942Z,1.40
2023-01-26T08:29:43.043Z,1.40
2023-01-26T08:32:11.872Z,1.40
2023-01-26T08:34:40.648Z,1.50
2023-01-26T08:37:09.313Z,1.50
2023-01-26T08:39:38.076Z,1.50
2023-01-26T08:42:06.864Z,1.50
2023-01-26T08:44:35.789Z,1.50
2023-01-26T08:47:06.144Z,1.50
2023-01-26T08:49:34.830Z,1.50
2023-01-26T08:52:03.509Z,1.50
2023-01-26T08:54:32.191Z,1.60
2023-01-26T08:57:00.867Z,1.60
2023-01-26T08:59:29.543Z,1.60
2023-01-26T09:01:58.374Z,1.70
2023-01-26T09:04:28.710Z,1.60
2023-01-26T09:06:57.467Z,1.60
2023-01-26T09:09:26.431Z,1.60
2023-01-26T09:11:57.129Z,1.70
2023-01-26T09:14:25.858Z,1.70
2023-01-26T09:16:54.843Z,1.70
2023-01-26T09:19:23.649Z,1.70
2023-01-26T09:21:57.532Z,1.70
2023-01-26T09:24:26.441Z,1.70
2023-01-26T09:26:55.169Z,1.70
2023-01-26T09:29:23.941Z,1.70
2023-01-26T09:31:52.749Z,1.70
2023-01-26T09:34:21.529Z,1.80
2023-01-26T09:36:50.341Z,1.80
2023-01-26T09:39:20.642Z,1.80
2023-01-26T09:42:04.491Z,1.90
2023-01-26T09:44:39.310Z,1.80
2023-01-26T09:47:15.776Z,1.90
2023-01-26T09:49:50.128Z,1.80
2023-01-26T09:52:27.708Z,1.80
2023-01-26T09:55:04.801Z,1.80
2023-01-26T09:57:38.866Z,1.90
2023-01-26T10:00:11.560Z,1.80
2023-01-26T10:02:53.395Z,1.90
2023-01-26T10:05:31.592Z,1.90
2023-01-26T10:08:12.929Z,1.90
2023-01-26T10:10:49.017Z,1.90
2023-01-26T10:13:21.185Z,1.80
2023-01-26T10:15:53.356Z,1.80
2023-01-26T10:18:27.542Z,1.80
2023-01-26T10:20:59.897Z,1.80
2023-01-26T10:23:31.030Z,1.80
2023-01-26T10:26:14.254Z,1.80
2023-01-26T10:28:44.717Z,1.90
2023-01-26T10:31:17.481Z,1.90
2023-01-26T10:33:52.509Z,1.90
2023-01-26T10:36:21.973Z,1.90
2023-01-26T10:38:50.858Z,1.80
2023-01-26T10:41:32.566Z,1.90
2023-01-26T10:44:05.056Z,1.80
2023-01-26T10:46:35.802Z,1.80
2023-01-26T10:49:15.717Z,1.80
2023-01-26T10:51:46.135Z,1.70
2023-01-26T10:54:33.885Z,1.70
2023-01-26T10:57:07.450Z,1.70
2023-01-26T10:59:40.865Z,1.80
2023-01-26T11:02:24.205Z,1.80
2023-01-26T11:05:16.501Z,1.70
2023-01-26T11:07:46.618Z,1.70
2023-01-26T11:10:25.593Z,1.70
2023-01-26T11:13:19.486Z,1.80
2023-01-26T11:15:49.601Z,1.70
2023-01-26T11:18:29.456Z,1.80
2023-01-26T11:21:02.139Z,1.70
2023-01-26T11:23:42.358Z,1.70
2023-01-26T11:26:32.943Z,1.70
2023-01-26T11:29:30.726Z,1.70
2023-01-26T11:32:07.725Z,1.70
2023-01-26T11:34:49.410Z,1.70
2023-01-26T11:37:41.059Z,1.70
2023-01-26T11:40:25.487Z,1.70
2023-01-26T11:43:07.227Z,1.70
2023-01-26T11:45:48.970Z,1.60
2023-01-26T11:48:27.210Z,1.70
2023-01-26T11:50:59.232Z,1.70
2023-01-26T11:53:57.219Z,1.70
2023-01-26T11:56:34.126Z,1.70
2023-01-26T11:59:10.069Z,1.70
2023-01-26T12:01:46.105Z,1.70
2023-01-26T12:05:14.769Z,1.60
2023-01-26T12:08:19.221Z,1.60
2023-01-26T12:14:17.243Z,1.60
2023-01-26T12:17:15.599Z,1.70
2023-01-26T12:19:54.638Z,1.70
2023-01-26T12:22:27.566Z,1.70
2023-01-26T12:25:18.674Z,1.70
2023-01-26T12:27:54.552Z,1.70
2023-01-26T12:30:33.164Z,1.70
2023-01-26T12:33:04.069Z,1.60
2023-01-26T12:35:45.497Z,1.70
2023-01-26T12:38:19.866Z,1.70
2023-01-26T12:41:02.351Z,1.60
2023-01-26T12:43:43.414Z,1.60
2023-01-26T12:46:14.000Z,1.60
2023-01-26T12:48:47.282Z,1.60
2023-01-26T12:51:21.887Z,1.60
2023-01-26T12:53:57.507Z,1.60
2023-01-26T12:56:30.431Z,1.60
2023-01-26T12:59:01.869Z,1.60
2023-01-26T13:01:41.083Z,1.60
2023-01-26T13:04:12.927Z,1.60
2023-01-26T13:06:41.938Z,1.60
2023-01-26T13:09:23.084Z,1.60
2023-01-26T13:11:53.811Z,1.60
2023-01-26T13:14:31.760Z,1.60
2023-01-26T13:17:39.830Z,1.60
2023-01-26T13:20:45.859Z,1.60
2023-01-26T13:23:47.355Z,1.60
2023-01-26T13:26:19.374Z,1.60
2023-01-26T13:28:51.179Z,1.60
2023-01-26T13:31:35.954Z,1.60
2023-01-26T13:34:10.639Z,1.60
2023-01-26T13:36:43.708Z,1.60
2023-01-26T13:39:19.723Z,1.60
2023-01-26T13:41:49.247Z,1.60
2023-01-26T13:44:23.654Z,1.50
2023-01-26T13:46:56.740Z,1.60
2023-01-26T13:49:29.052Z,1.60
2023-01-26T13:51:57.720Z,1.50
2023-01-26T13:54:28.049Z,1.50
2023-01-26T13:57:05.034Z,1.50
2023-01-26T13:59:34.565Z,1.40
2023-01-26T14:02:03.423Z,1.40
2023-01-26T14:04:35.381Z,1.40
2023-01-26T14:07:07.608Z,1.40
2023-01-26T14:09:49.065Z,1.30
2023-01-26T14:12:23.822Z,1.30
2023-01-26T14:14:55.228Z,1.40
2023-01-26T14:17:28.796Z,1.30
2023-01-26T14:20:00.253Z,1.30
2023-01-26T14:22:29.400Z,1.30
2023-01-26T14:24:57.956Z,1.30
2023-01-26T14:27:37.590Z,1.30
2023-01-26T14:30:23.066Z,1.30
2023-01-26T14:33:00.056Z,1.20
2023-01-26T14:35:30.333Z,1.20
2023-01-26T14:38:18.080Z,1.20
2023-01-26T14:40:47.885Z,1.20
2023-01-26T14:43:17.204Z,1.20
2023-01-26T14:45:50.149Z,1.20
2023-01-26T14:48:21.863Z,1.20
2023-01-26T14:50:51.920Z,1.30
2023-01-26T14:53:23.085Z,1.20
2023-01-26T14:55:53.365Z,1.20
2023-01-26T14:58:25.336Z,1.20
2023-01-26T15:00:54.360Z,1.20
2023-01-26T15:03:27.551Z,1.30
2023-01-26T15:06:17.007Z,1.30
2023-01-26T15:08:56.317Z,1.30
2023-01-26T15:11:51.710Z,1.20
2023-01-26T15:14:34.180Z,1.20
2023-01-26T15:17:02.952Z,1.10
2023-01-26T15:19:39.633Z,1.10
2023-01-26T15:22:23.132Z,1.10
2023-01-26T15:25:06.654Z,1.10
2023-01-26T15:27:36.856Z,1.10
2023-01-26T15:30:08.213Z,1.10
2023-01-26T15:32:41.270Z,1.10
2023-01-26T15:35:22.273Z,1.10
2023-01-26T15:38:02.067Z,1.10
2023-01-26T15:40:32.961Z,1.10
2023-01-26T15:43:13.606Z,1.10
2023-01-26T15:45:52.964Z,1.10
2023-01-26T15:48:22.598Z,1.00
2023-01-26T15:50:51.498Z,1.10
2023-01-26T15:53:23.302Z,1.10
2023-01-26T15:55:55.439Z,1.00
2023-01-26T15:58:24.653Z,1.00
2023-01-26T16:00:53.850Z,1.00
2023-01-26T16:03:23.573Z,1.00
2023-01-26T16:05:52.136Z,1.00
2023-01-26T16:08:22.352Z,1.00
2023-01-26T16:10:50.928Z,1.00
2023-01-26T16:13:21.207Z,1.00
2023-01-26T16:15:52.181Z,1.00
2023-01-26T16:18:22.672Z,1.00
2023-01-26T16:20:52.063Z,1.00
2023-01-26T16:23:26.289Z,0.90
2023-01-26T16:25:55.301Z,0.90
2023-01-26T16:28:24.253Z,0.90
2023-01-26T16:30:53.207Z,0.90
2023-01-26T16:33:22.577Z,0.90
2023-01-26T16:35:51.683Z,0.90
2023-01-26T16:38:22.372Z,0.90
2023-01-26T16:40:51.724Z,0.90
2023-01-26T16:43:28.125Z,0.90
2023-01-26T16:45:58.023Z,1.00
2023-01-26T16:48:29.062Z,0.90
2023-01-26T16:50:58.022Z,1.00
2023-01-26T16:53:30.477Z,1.00
2023-01-26T16:56:00.819Z,1.00
2023-01-26T16:58:32.821Z,1.00
2023-01-26T17:01:02.233Z,0.90
2023-01-26T17:03:31.185Z,0.90
2023-01-26T17:06:00.381Z,1.00
2023-01-26T17:08:30.913Z,1.00
2023-01-26T17:11:02.711Z,1.00
2023-01-26T17:13:32.802Z,1.00
2023-01-26T17:16:01.914Z,1.10
2023-01-26T17:18:33.599Z,1.00
2023-01-26T17:21:06.339Z,1.10
2023-01-26T17:23:38.492Z,1.00
2023-01-26T17:26:08.241Z,1.00
2023-01-26T17:28:37.181Z,1.00
2023-01-26T17:31:10.883Z,1.00
2023-01-26T17:33:40.140Z,1.00
2023-01-26T17:36:09.845Z,1.00
2023-01-26T17:38:41.349Z,1.00
2023-01-26T17:41:11.737Z,1.00
2023-01-26T17:43:40.579Z,1.00
2023-01-26T17:46:12.030Z,1.00
2023-01-26T17:48:43.023Z,1.10
2023-01-26T17:51:16.688Z,1.00
2023-01-26T17:53:49.666Z,1.00
2023-01-26T17:56:20.453Z,1.00
2023-01-26T17:58:53.257Z,1.00
2023-01-26T18:01:24.702Z,1.00
2023-01-26T18:03:54.911Z,1.00
2023-01-26T18:06:24.393Z,1.00
2023-01-26T18:08:56.157Z,1.10
2023-01-26T18:11:25.387Z,1.00
2023-01-26T18:13:55.886Z,1.00
2023-01-26T18:16:25.241Z,1.00
2023-01-26T18:18:56.656Z,1.00
2023-01-26T18:21:27.263Z,1.00
2023-01-26T18:24:00.833Z,1.10
2023-01-26T18:26:32.901Z,1.10
2023-01-26T18:29:02.230Z,1.10
2023-01-26T18:31:32.684Z,1.10
2023-01-26T18:34:03.391Z,1.10
2023-01-26T18:36:33.092Z,1.00
2023-01-26T18:39:05.597Z,1.00
2023-01-26T18:41:35.849Z,1.00
2023-01-26T18:44:05.056Z,1.00
2023-01-26T18:46:34.385Z,1.00
2023-01-26T18:49:03.786Z,1.00
2023-01-26T18:51:34.498Z,1.00
2023-01-26T18:54:06.045Z,1.00
2023-01-26T18:56:36.519Z,1.00
2023-01-26T18:59:05.449Z,1.00
2023-01-26T19:01:34.527Z,1.00
2023-01-26T19:04:04.336Z,1.00
2023-01-26T19:06:34.128Z,1.00
2023-01-26T19:09:09.820Z,1.00
2023-01-26T19:11:39.692Z,1.00
2023-01-26T19:14:09.523Z,1.00
2023-01-26T19:16:38.457Z,1.10
2023-01-26T19:19:07.283Z,1.00
2023-01-26T19:21:35.955Z,1.10
2023-01-26T19:24:07.466Z,1.10
2023-01-26T19:26:36.268Z,1.10
2023-01-26T19:29:05.376Z,1.10
2023-01-26T19:31:35.775Z,1.10
2023-01-26T19:34:06.302Z,1.20
2023-01-26T19:36:36.514Z,1.20
2023-01-26T19:39:07.458Z,1.20
2023-01-26T19:41:36.261Z,1.20
2023-01-26T19:44:04.852Z,1.10
2023-01-26T19:46:33.916Z,1.20
2023-01-26T19:49:02.649Z,1.20
2023-01-26T19:51:31.385Z,1.30
2023-01-26T19:54:00.510Z,1.50
2023-01-26T19:56:32.005Z,1.70
2023-01-26T19:59:02.836Z,1.80
2023-01-26T20:01:32.277Z,1.90
2023-01-26T20:04:03.549Z,2.00
2023-01-26T20:06:33.947Z,2.00
2023-01-26T20:09:04.341Z,2.00
2023-01-26T20:11:34.989Z,2.00
2023-01-26T20:14:05.944Z,2.10
2023-01-26T20:16:35.389Z,2.10
2023-01-26T20:19:04.401Z,2.00
2023-01-26T20:21:33.843Z,2.10
2023-01-26T20:24:06.812Z,2.10
2023-01-26T20:26:37.315Z,2.10
2023-01-26T20:29:08.368Z,2.00
2023-01-26T20:31:37.152Z,2.00
2023-01-26T20:34:06.014Z,2.00
2023-01-26T20:36:35.477Z,2.10
2023-01-26T20:39:05.394Z,2.10
2023-01-26T20:41:36.630Z,2.10
2023-01-26T20:44:07.146Z,2.10
2023-01-26T20:46:38.894Z,2.10
2023-01-26T20:49:09.759Z,2.10
2023-01-26T20:51:39.638Z,2.20
2023-01-26T20:54:08.960Z,2.20
2023-01-26T20:56:39.255Z,2.20
2023-01-26T20:59:09.079Z,2.20
2023-01-26T21:01:37.401Z,2.30
2023-01-26T21:04:06.930Z,2.30
2023-01-26T21:06:36.443Z,2.20
2023-01-26T21:09:06.244Z,2.30
2023-01-26T21:11:35.390Z,2.30
2023-01-26T21:14:05.754Z,2.30
2023-01-26T21:16:35.817Z,2.30
2023-01-26T21:19:04.634Z,2.30
2023-01-26T21:21:33.460Z,2.20
2023-01-26T21:24:02.123Z,2.20
2023-01-26T21:26:30.657Z,2.20
2023-01-26T21:29:00.800Z,2.20
2023-01-26T21:31:34.114Z,2.20
2023-01-26T21:34:02.978Z,2.20
2023-01-26T21:36:34.232Z,2.20
2023-01-26T21:39:03.487Z,2.20
2023-01-26T21:41:51.523Z,2.20
2023-01-26T21:44:21.678Z,2.20
2023-01-26T21:46:53.448Z,2.10
2023-01-26T21:49:22.930Z,2.10
2023-01-26T21:52:09.483Z,2.10
2023-01-26T21:54:38.383Z,2.10
2023-01-26T21:57:29.897Z,2.10
2023-01-26T21:59:57.619Z,2.10
2023-01-26T22:02:27.596Z,2.10
2023-01-26T22:04:56.230Z,2.00
2023-01-26T22:07:24.757Z,2.00
2023-01-26T22:09:53.484Z,2.00
2023-01-26T22:12:23.094Z,2.00
2023-01-26T22:14:52.523Z,2.00
2023-01-26T22:17:21.138Z,2.00
2023-01-26T22:19:51.270Z,2.00
2023-01-26T22:22:19.943Z,1.90
2023-01-26T22:24:48.649Z,1.90
2023-01-26T22:27:17.232Z,1.90
2023-01-26T22:29:45.844Z,1.90
2023-01-26T22:32:14.889Z,1.90
2023-01-26T22:34:43.870Z,1.90
2023-01-26T22:37:14.321Z,1.80
2023-01-26T22:39:43.311Z,1.80
2023-01-26T22:42:11.950Z,1.80
2023-01-26T22:44:40.600Z,1.80
2023-01-26T22:47:09.330Z,1.80
2023-01-26T22:49:38.922Z,1.80
2023-01-26T22:52:07.522Z,1.70
2023-01-26T22:54:37.652Z,1.70
2023-01-26T22:57:06.231Z,1.80
2023-01-26T22:59:34.775Z,1.70
2023-01-26T23:02:03.437Z,1.70
2023-01-26T23:04:32.040Z,1.70
2023-01-26T23:07:01.792Z,1.70
2023-01-26T23:09:30.628Z,1.60
2023-01-26T23:12:04.523Z,1.60
2023-01-26T23:14:34.283Z,1.60
2023-01-26T23:17:03.050Z,1.60
2023-01-26T23:19:33.712Z,1.50
2023-01-26T23:22:02.358Z,1.50
2023-01-26T23:24:30.979Z,1.50
2023-01-26T23:26:59.591Z,1.50
2023-01-26T23:29:29.661Z,1.40
2023-01-26T23:31:58.348Z,1.40
2023-01-26T23:34:26.991Z,1.40
2023-01-26T23:36:55.538Z,1.40
2023-01-26T23:39:24.400Z,1.40
2023-01-26T23:41:52.899Z,1.30
2023-01-26T23:44:21.481Z,1.40
2023-01-26T23:46:51.868Z,1.30
2023-01-26T23:49:20.925Z,1.20
2023-01-26T23:51:49.463Z,1.20
2023-01-26T23:54:18.089Z,1.40
2023-01-26T23:56:47.830Z,1.20
2023-01-26T23:59:18.160Z,1.10
